createdAt,value
2018-04-26T00:00:01.834Z,99.99
2018-04-26T00:05:01.431Z,99.99
2018-04-26T00:09:57.335Z,99.99
2018-04-26T00:14:53.277Z,99.99
2018-04-26T00:19:48.911Z,99.99
2018-04-26T00:24:44.300Z,99.99
2018-04-26T00:29:40.223Z,99.99
2018-04-26T00:34:36.146Z,99.99
2018-04-26T00:39:36.962Z,99.99
2018-04-26T00:44:31.691Z,99.99
2018-04-26T00:49:27.634Z,99.99
2018-04-26T00:54:24.888Z,99.99
2018-04-26T00:59:20.432Z,99.99
2018-04-26T01:04:17.174Z,99.99
2018-04-26T01:09:16.680Z,99.99
2018-04-26T01:14:11.800Z,99.99
2018-04-26T01:19:07.479Z,99.99
2018-04-26T01:24:03.189Z,99.99
2018-04-26T01:29:00.309Z,99.99
2018-04-26T01:33:59.513Z,99.99
2018-04-26T01:38:54.436Z,99.99
2018-04-26T01:43:54.254Z,99.99
2018-04-26T01:48:53.524Z,99.99
2018-04-26T01:53:48.611Z,99.99
2018-04-26T01:58:48.303Z,99.99
2018-04-26T02:03:43.102Z,99.99
2018-04-26T02:08:39.915Z,99.99
2018-04-26T02:13:36.473Z,99.99
2018-04-26T02:18:33.058Z,99.99
2018-04-26T02:23:29.504Z,99.99
2018-04-26T02:28:24.955Z,99.99
2018-04-26T02:33:20.676Z,99.99
2018-04-26T02:38:21.440Z,99.99
2018-04-26T02:43:16.177Z,99.99
2018-04-26T02:48:16.618Z,99.99
2018-04-26T02:53:12.383Z,99.99
2018-04-26T02:58:08.039Z,99.99
2018-04-26T03:03:04.729Z,99.99
2018-04-26T03:08:01.457Z,99.99
2018-04-26T03:13:00.856Z,99.99
2018-04-26T03:17:57.091Z,99.99
2018-04-26T03:22:53.670Z,99.99
2018-04-26T03:27:49.324Z,99.99
2018-04-26T03:32:44.721Z,99.99
2018-04-26T03:37:40.387Z,99.99
2018-04-26T03:42:41.112Z,99.99
2018-04-26T03:47:35.848Z,99.99
2018-04-26T03:52:32.382Z,99.99
2018-04-26T03:57:27.817Z,99.99
2018-04-26T04:02:23.297Z,99.99
2018-04-26T04:07:19.099Z,99.99
2018-04-26T04:12:19.780Z,99.99
2018-04-26T04:17:14.742Z,99.99
2018-04-26T04:22:14.293Z,99.99
2018-04-26T04:27:09.160Z,99.99
2018-04-26T04:32:04.823Z,99.99
2018-04-26T04:37:00.548Z,99.99
2018-04-26T04:41:56.237Z,99.99
2018-04-26T04:46:55.942Z,99.99
2018-04-26T04:51:51.012Z,99.99
2018-04-26T04:56:46.961Z,99.99
2018-04-26T05:01:46.860Z,99.99
2018-04-26T05:06:46.189Z,99.99
2018-04-26T05:11:45.332Z,99.99
2018-04-26T05:16:41.636Z,99.99
2018-04-26T05:21:37.048Z,99.99
2018-04-26T05:26:34.259Z,99.99
2018-04-26T05:31:29.741Z,99.99
2018-04-26T05:36:25.360Z,99.99
2018-04-26T05:41:21.430Z,99.99
2018-04-26T05:46:17.557Z,99.99
2018-04-26T05:51:13.438Z,99.99
2018-04-26T05:56:14.119Z,99.99
2018-04-26T06:01:09.888Z,99.99
2018-04-26T06:06:05.847Z,99.99
2018-04-26T06:11:01.687Z,99.99
2018-04-26T06:15:58.752Z,99.99
2018-04-26T06:20:59.009Z,99.99
2018-04-26T06:25:54.048Z,99.99
2018-04-26T06:30:50.115Z,99.99
2018-04-26T06:35:46.540Z,99.99
2018-04-26T06:40:42.492Z,99.99
2018-04-26T06:45:42.220Z,99.99
2018-04-26T06:50:38.122Z,99.99
2018-04-26T06:55:38.392Z,99.99
2018-04-26T07:00:34.646Z,99.99
2018-04-26T07:05:30.702Z,99.99
2018-04-26T07:10:26.411Z,99.99
2018-04-26T07:15:23.386Z,99.99
2018-04-26T07:20:19.233Z,99.99
2018-04-26T07:25:16.042Z,99.99
2018-04-26T07:30:15.763Z,99.99
2018-04-26T07:35:10.926Z,99.99
2018-04-26T07:40:06.716Z,99.99
2018-04-26T07:45:03.705Z,99.99
2018-04-26T07:49:58.729Z,99.99
2018-04-26T07:54:55.499Z,99.99
2018-04-26T07:59:53.315Z,99.99
2018-04-26T08:04:50.123Z,99.99
2018-04-26T08:09:45.543Z,99.99
2018-04-26T08:14:47.633Z,99.99
2018-04-26T08:19:44.006Z,99.99
2018-04-26T08:24:43.440Z,99.99
2018-04-26T08:29:42.850Z,99.99
2018-04-26T08:34:40.878Z,98.85
2018-04-26T08:39:36.872Z,92.21
2018-04-26T08:44:32.156Z,93.79
2018-04-26T08:49:27.153Z,90.78
2018-04-26T08:54:26.206Z,91.83
2018-04-26T08:59:21.255Z,91.11
2018-04-26T09:04:22.176Z,91.21
2018-04-26T09:09:17.200Z,91.69
2018-04-26T09:14:12.695Z,95.41
2018-04-26T09:19:12.952Z,92.50
2018-04-26T09:24:08.514Z,99.99
2018-04-26T09:29:02.938Z,99.99
2018-04-26T09:34:02.911Z,99.99
2018-04-26T09:39:03.931Z,99.99
2018-04-26T09:44:01.632Z,99.96
2018-04-26T09:49:00.527Z,92.11
2018-04-26T09:53:57.223Z,88.47
2018-04-26T09:58:57.620Z,90.77
2018-04-26T10:03:57.108Z,85.41
2018-04-26T10:08:56.289Z,82.43
2018-04-26T10:13:51.364Z,82.92
2018-04-26T10:18:45.858Z,85.75
2018-04-26T10:23:40.065Z,90.49
2018-04-26T10:28:34.974Z,92.83
2018-04-26T10:33:32.659Z,86.71
2018-04-26T10:38:35.154Z,85.27
2018-04-26T10:43:30.900Z,87.33
2018-04-26T10:48:27.206Z,84.55
2018-04-26T10:53:24.682Z,77.78
2018-04-26T10:58:22.995Z,77.36
2018-04-26T11:03:17.192Z,75.54
2018-04-26T11:08:15.613Z,70.92
2018-04-26T11:13:12.071Z,69.29
2018-04-26T11:18:04.714Z,77.19
2018-04-26T11:22:58.590Z,78.74
2018-04-26T11:27:59.308Z,69.42
2018-04-26T11:32:56.855Z,67.91
2018-04-26T11:37:58.665Z,64.85
2018-04-26T11:42:52.706Z,66.00
2018-04-26T11:47:45.318Z,72.16
2018-04-26T11:52:43.909Z,73.47
2018-04-26T11:57:43.579Z,73.97
2018-04-26T12:02:35.240Z,87.53
2018-04-26T12:07:30.210Z,99.99
2018-04-26T12:12:28.158Z,99.99
2018-04-26T12:17:21.935Z,99.99
2018-04-26T12:22:17.897Z,99.99
2018-04-26T12:27:12.915Z,99.99
2018-04-26T12:32:08.402Z,99.99
2018-04-26T12:37:09.851Z,99.99
2018-04-26T12:42:05.522Z,99.99
2018-04-26T12:47:04.988Z,99.99
2018-04-26T12:52:00.084Z,99.99
2018-04-26T12:56:57.562Z,99.99
2018-04-26T13:01:58.662Z,99.99
2018-04-26T13:06:54.188Z,89.15
2018-04-26T13:11:50.716Z,87.52
2018-04-26T13:16:46.095Z,83.22
2018-04-26T13:21:41.172Z,80.69
2018-04-26T13:26:37.115Z,78.97
2018-04-26T13:31:32.466Z,78.45
2018-04-26T13:36:31.901Z,75.52
2018-04-26T13:41:26.651Z,76.16
2018-04-26T13:46:26.342Z,73.33
2018-04-26T13:51:22.030Z,72.37
2018-04-26T13:56:17.775Z,74.48
2018-04-26T14:01:13.849Z,79.08
2018-04-26T14:06:08.854Z,90.73
2018-04-26T14:11:04.151Z,94.22
2018-04-26T14:16:00.193Z,91.69
2018-04-26T14:20:56.504Z,88.92
2018-04-26T14:25:54.322Z,86.82
2018-04-26T14:30:50.505Z,82.60
2018-04-26T14:35:47.896Z,79.83
2018-04-26T14:40:43.055Z,79.93
2018-04-26T14:45:42.672Z,80.65
2018-04-26T14:50:37.460Z,77.59
2018-04-26T14:55:37.223Z,73.96
2018-04-26T15:00:32.179Z,72.81
2018-04-26T15:05:28.824Z,72.28
2018-04-26T15:10:24.431Z,71.51
2018-04-26T15:15:25.011Z,72.56
2018-04-26T15:20:24.169Z,74.48
2018-04-26T15:25:19.476Z,72.69
2018-04-26T15:30:19.434Z,71.07
2018-04-26T15:35:18.476Z,70.30
2018-04-26T15:40:13.092Z,62.46
2018-04-26T15:45:09.203Z,63.60
2018-04-26T15:50:04.960Z,63.89
2018-04-26T15:55:00.671Z,64.95
2018-04-26T15:59:56.638Z,61.98
2018-04-26T16:04:52.944Z,59.97
2018-04-26T16:09:49.062Z,57.48
2018-04-26T16:14:44.657Z,57.46
2018-04-26T16:19:44.357Z,58.98
2018-04-26T16:24:39.219Z,60.04
2018-04-26T16:29:35.500Z,60.04
2018-04-26T16:34:36.118Z,62.33
2018-04-26T16:39:31.082Z,59.66
2018-04-26T16:44:27.108Z,60.33
2018-04-26T16:49:24.101Z,58.70
2018-04-26T16:54:19.491Z,59.08
2018-04-26T16:59:16.017Z,60.42
2018-04-26T17:04:11.815Z,60.80
2018-04-26T17:09:11.606Z,59.53
2018-04-26T17:14:06.662Z,59.24
2018-04-26T17:19:03.408Z,58.29
2018-04-26T17:23:58.847Z,59.24
2018-04-26T17:28:54.427Z,58.19
2018-04-26T17:33:51.171Z,59.31
2018-04-26T17:38:47.717Z,59.22
2018-04-26T17:43:43.271Z,59.98
2018-04-26T17:48:43.669Z,58.36
2018-04-26T17:53:43.638Z,59.88
2018-04-26T17:58:42.646Z,62.37
2018-04-26T18:03:41.221Z,62.91
2018-04-26T18:08:41.610Z,62.71
2018-04-26T18:13:36.795Z,63.57
2018-04-26T18:18:37.380Z,63.57
2018-04-26T18:23:37.182Z,66.25
2018-04-26T18:28:31.569Z,66.50
2018-04-26T18:33:27.091Z,66.78
2018-04-26T18:38:23.163Z,66.78
2018-04-26T18:43:22.835Z,69.27
2018-04-26T18:48:17.971Z,70.42
2018-04-26T18:53:14.024Z,69.17
2018-04-26T18:58:09.818Z,70.13
2018-04-26T19:03:10.402Z,70.86
2018-04-26T19:08:10.374Z,72.19
2018-04-26T19:13:09.076Z,73.52
2018-04-26T19:18:07.948Z,73.14
2018-04-26T19:23:02.775Z,75.81
2018-04-26T19:27:58.541Z,76.67
2018-04-26T19:32:55.014Z,76.73
2018-04-26T19:37:54.422Z,77.11
2018-04-26T19:42:49.285Z,78.83
2018-04-26T19:47:45.013Z,80.26
2018-04-26T19:52:40.889Z,81.30
2018-04-26T19:57:37.589Z,82.17
2018-04-26T20:02:36.676Z,82.54
2018-04-26T20:07:31.720Z,85.02
2018-04-26T20:12:31.435Z,85.02
2018-04-26T20:17:31.504Z,85.21
2018-04-26T20:22:26.278Z,87.79
2018-04-26T20:27:22.120Z,88.17
2018-04-26T20:32:18.691Z,91.41
2018-04-26T20:37:14.642Z,92.84
2018-04-26T20:42:14.077Z,95.17
2018-04-26T20:47:08.917Z,96.41
2018-04-26T20:52:05.720Z,97.84
2018-04-26T20:57:01.388Z,99.55
2018-04-26T21:02:01.033Z,99.99
2018-04-26T21:06:55.795Z,99.99
2018-04-26T21:11:51.705Z,99.99
2018-04-26T21:16:51.411Z,99.99
2018-04-26T21:21:46.124Z,99.99
2018-04-26T21:26:42.947Z,99.99
2018-04-26T21:31:38.671Z,99.99
2018-04-26T21:36:34.332Z,99.99
2018-04-26T21:41:34.315Z,99.99
2018-04-26T21:46:29.290Z,99.99
2018-04-26T21:51:24.950Z,99.99
2018-04-26T21:56:20.909Z,99.99
2018-04-26T22:01:16.559Z,99.99
2018-04-26T22:06:13.356Z,99.99
2018-04-26T22:11:08.964Z,99.99
2018-04-26T22:16:08.159Z,99.99
2018-04-26T22:21:03.284Z,99.99
2018-04-26T22:26:03.132Z,99.99
2018-04-26T22:30:58.632Z,99.99
2018-04-26T22:35:59.064Z,99.99
2018-04-26T22:40:53.875Z,99.99
2018-04-26T22:45:50.654Z,99.99
2018-04-26T22:50:46.200Z,99.99
2018-04-26T22:55:45.998Z,99.99
2018-04-26T23:00:40.955Z,99.99
2018-04-26T23:05:37.157Z,99.99
2018-04-26T23:10:32.811Z,99.99
2018-04-26T23:15:32.629Z,99.99
2018-04-26T23:20:28.503Z,99.99
2018-04-26T23:25:24.961Z,99.99
2018-04-26T23:30:24.300Z,99.99
2018-04-26T23:35:23.152Z,99.99
2018-04-26T23:40:18.939Z,99.99
2018-04-26T23:45:18.843Z,99.99
2018-04-26T23:50:13.568Z,99.99
2018-04-26T23:55:10.208Z,99.99
